Station Historical Data
Daily Summary for January 10, 2017 Units:  Both    English   Metric
« Previous Day
Next Day »
Daily Weekly Monthly Yearly Custom
  High: Low: Average:
Temperature: 55.3 °F /  12.9 °C 31.3 °F /  -0.4 °C 43.8 °F /  6.6 °C
Dew Point: 44.3 °F /  6.8 °C 12.3 °F /  -10.9 °C 28.7 °F /  -1.8 °C
Humidity: 68% 43% 55%
Wind Speed: 10.4mph /  16.7km/h - 10.4mph /  16.7km/h
Wind Gust: 10.4mph /  16.7km/h - -
Wind- - SW
Pressure: 30.59 in /  1035.8 hPa 30.33 in /  1027 hPa -
Precipitation: 0.09 in /  2.29 mm    
Historical Graphs
 
 
Tabular Data for January 10, 2017
Time Temperature Dew Point Pressure Wind Wind Speed Wind Gust Humidity Rainfall Rate (Hourly) solar Conditions
00:01 32.3 °F /  0.2 °C 12.3 °F /  -10.9 °C 30.59in /  1035.8hPa NW 10.4mph /  16.7km/h 10.4mph /  16.7km/h 43% 0.00in /  0mm 0.0 W/m2 RA
00:06 32.4 °F /  0.2 °C 12.9 °F /  -10.6 °C 30.59in /  1035.8hPa NW 10.4mph /  16.7km/h   44% 0.00in /  0mm 0.0 W/m2
00:11 32.3 °F /  0.2 °C 12.8 °F /  -10.7 °C 30.59in /  1035.8hPa NW 10.4mph /  16.7km/h   44% 0.00in /  0mm 0.0 W/m2
00:16 32.3 °F /  0.2 °C 12.3 °F /  -10.9 °C 30.59in /  1035.8hPa NW 10.4mph /  16.7km/h   43% 0.00in /  0mm 0.0 W/m2
00:22 32.3 °F /  0.2 °C 12.3 °F /  -10.9 °C 30.59in /  1035.8hPa NW 10.4mph /  16.7km/h   43% 0.00in /  0mm 0.0 W/m2
00:27 32.4 °F /  0.2 °C 12.4 °F /  -10.9 °C 30.59in /  1035.8hPa NNE 10.4mph /  16.7km/h   43% 0.00in /  0mm 0.0 W/m2
00:32 32.4 °F /  0.2 °C 12.9 °F /  -10.6 °C 30.59in /  1035.8hPa North 10.4mph /  16.7km/h   44% 0.00in /  0mm 0.0 W/m2
00:37 32.3 °F /  0.2 °C 13.8 °F /  -10.1 °C 30.59in /  1035.8hPa North 10.4mph /  16.7km/h   46% 0.00in /  0mm 0.0 W/m2
00:42 32.3 °F /  0.2 °C 13.8 °F /  -10.1 °C 30.59in /  1035.8hPa North 10.4mph /  16.7km/h   46% 0.00in /  0mm 0.0 W/m2
00:47 32.3 °F /  0.2 °C 13.3 °F /  -10.4 °C 30.59in /  1035.8hPa North 10.4mph /  16.7km/h   45% 0.00in /  0mm 0.0 W/m2
00:52 32.4 °F /  0.2 °C 13.4 °F /  -10.3 °C 30.58in /  1035.4hPa North 10.4mph /  16.7km/h 10.4mph /  16.7km/h 45% 0.00in /  0mm 0.0 W/m2
00:57 32.4 °F /  0.2 °C 13.4 °F /  -10.3 °C 30.58in /  1035.4hPa NNW 10.4mph /  16.7km/h   45% 0.00in /  0mm 0.0 W/m2
01:02 32.6 °F /  0.3 °C 14.1 °F /  -9.9 °C 30.58in /  1035.4hPa NNW 10.4mph /  16.7km/h   46% 0.00in /  0mm 0.0 W/m2
01:07 32.7 °F /  0.4 °C 13.7 °F /  -10.2 °C 30.57in /  1035.1hPa WNW 10.4mph /  16.7km/h 10.4mph /  16.7km/h 45% 0.00in /  0mm 0.0 W/m2
01:12 32.7 °F /  0.4 °C 13.7 °F /  -10.2 °C 30.57in /  1035.1hPa WNW 10.4mph /  16.7km/h   45% 0.00in /  0mm 0.0 W/m2
01:27 32.3 °F /  0.2 °C 13.3 °F /  -10.4 °C 30.57in /  1035.1hPa WNW 10.4mph /  16.7km/h   45% 0.00in /  0mm 0.0 W/m2
01:33 32.2 °F /  0.1 °C 13.2 °F /  -10.4 °C 30.57in /  1035.1hPa WNW 10.4mph /  16.7km/h   45% 0.00in /  0mm 0.0 W/m2
01:38 32.1 °F /  0.1 °C 14.1 °F /  -9.9 °C 30.56in /  1034.8hPa WNW 10.4mph /  16.7km/h   47% 0.00in /  0mm 0.0 W/m2
01:43 32.0 °F /  0 °C 14.5 °F /  -9.7 °C 30.56in /  1034.8hPa WNW 10.4mph /  16.7km/h   48% 0.00in /  0mm 0.0 W/m2
01:48 32.0 °F /  0 °C 15.0 °F /  -9.4 °C 30.56in /  1034.8hPa WNW 10.4mph /  16.7km/h   49% 0.00in /  0mm 0.0 W/m2
01:53 32.0 °F /  0 °C 14.5 °F /  -9.7 °C 30.56in /  1034.8hPa West 10.4mph /  16.7km/h   48% 0.00in /  0mm 0.0 W/m2
01:58 32.0 °F /  0 °C 15.0 °F /  -9.4 °C 30.56in /  1034.8hPa West 10.4mph /  16.7km/h 10.4mph /  16.7km/h 49% 0.00in /  0mm 0.0 W/m2
02:03 32.0 °F /  0 °C 15.0 °F /  -9.4 °C 30.56in /  1034.8hPa NW 10.4mph /  16.7km/h 10.4mph /  16.7km/h 49% 0.00in /  0mm 0.0 W/m2
02:08 32.0 °F /  0 °C 15.0 °F /  -9.4 °C 30.55in /  1034.4hPa West 10.4mph /  16.7km/h 10.4mph /  16.7km/h 49% 0.00in /  0mm 0.0 W/m2
02:13 32.0 °F /  0 °C 14.5 °F /  -9.7 °C 30.56in /  1034.8hPa WNW 10.4mph /  16.7km/h   48% 0.00in /  0mm 0.0 W/m2
02:18 32.0 °F /  0 °C 15.4 °F /  -9.2 °C 30.56in /  1034.8hPa WNW 10.4mph /  16.7km/h   50% 0.00in /  0mm 0.0 W/m2
02:23 32.0 °F /  0 °C 15.0 °F /  -9.4 °C 30.56in /  1034.8hPa West 10.4mph /  16.7km/h   49% 0.00in /  0mm 0.0 W/m2
02:28 32.1 °F /  0.1 °C 14.6 °F /  -9.7 °C 30.56in /  1034.8hPa WNW 10.4mph /  16.7km/h   48% 0.00in /  0mm 0.0 W/m2
02:33 32.2 °F /  0.1 °C 14.7 °F /  -9.6 °C 30.56in /  1034.8hPa West 10.4mph /  16.7km/h   48% 0.00in /  0mm 0.0 W/m2
02:38 32.3 °F /  0.2 °C 14.8 °F /  -9.6 °C 30.56in /  1034.8hPa West 10.4mph /  16.7km/h   48% 0.00in /  0mm 0.0 W/m2
02:43 32.3 °F /  0.2 °C 15.3 °F /  -9.3 °C 30.56in /  1034.8hPa West 10.4mph /  16.7km/h   49% 0.00in /  0mm 0.0 W/m2
02:49 32.3 °F /  0.2 °C 14.8 °F /  -9.6 °C 30.56in /  1034.8hPa West 10.4mph /  16.7km/h   48% 0.00in /  0mm 0.0 W/m2
02:54 31.3 °F /  -0.4 °C 13.9 °F /  -10.1 °C 30.56in /  1034.8hPa West 10.4mph /  16.7km/h   48% 0.00in /  0mm 0.0 W/m2
02:59 31.3 °F /  -0.4 °C 13.9 °F /  -10.1 °C 30.56in /  1034.8hPa West 10.4mph /  16.7km/h   48% 0.00in /  0mm 0.0 W/m2
03:04 31.3 °F /  -0.4 °C 13.9 °F /  -10.1 °C 30.56in /  1034.8hPa NNE 10.4mph /  16.7km/h   48% 0.00in /  0mm 0.0 W/m2
03:09 31.3 °F /  -0.4 °C 13.9 °F /  -10.1 °C 30.56in /  1034.8hPa North 10.4mph /  16.7km/h   48% 0.00in /  0mm 0.0 W/m2
03:14 31.3 °F /  -0.4 °C 13.9 °F /  -10.1 °C 30.56in /  1034.8hPa North 10.4mph /  16.7km/h   48% 0.00in /  0mm 0.0 W/m2
03:19 31.3 °F /  -0.4 °C 13.9 °F /  -10.1 °C 30.55in /  1034.4hPa North 10.4mph /  16.7km/h   48% 0.00in /  0mm 0.0 W/m2
03:24 31.3 °F /  -0.4 °C 13.9 °F /  -10.1 °C 30.55in /  1034.4hPa North 10.4mph /  16.7km/h   48% 0.00in /  0mm 0.0 W/m2
03:29 31.3 °F /  -0.4 °C 13.9 °F /  -10.1 °C 30.54in /  1034.1hPa North 10.4mph /  16.7km/h   48% 0.00in /  0mm 0.0 W/m2
03:34 31.3 °F /  -0.4 °C 13.9 °F /  -10.1 °C 30.55in /  1034.4hPa North 10.4mph /  16.7km/h   48% 0.00in /  0mm 0.0 W/m2
03:39 31.3 °F /  -0.4 °C 13.9 °F /  -10.1 °C 30.55in /  1034.4hPa North 10.4mph /  16.7km/h   48% 0.00in /  0mm 0.0 W/m2
03:44 31.3 °F /  -0.4 °C 13.9 °F /  -10.1 °C 30.54in /  1034.1hPa North 10.4mph /  16.7km/h   48% 0.00in /  0mm 0.0 W/m2
03:49 31.3 °F /  -0.4 °C 13.9 °F /  -10.1 °C 30.54in /  1034.1hPa North 10.4mph /  16.7km/h   48% 0.00in /  0mm 0.0 W/m2
03:54 31.3 °F /  -0.4 °C 13.9 °F /  -10.1 °C 30.55in /  1034.4hPa North 10.4mph /  16.7km/h   48% 0.00in /  0mm 0.0 W/m2
03:59 31.3 °F /  -0.4 °C 13.9 °F /  -10.1 °C 30.54in /  1034.1hPa North 10.4mph /  16.7km/h   48% 0.00in /  0mm 0.0 W/m2
04:05 31.3 °F /  -0.4 °C 13.9 °F /  -10.1 °C 30.53in /  1033.7hPa North 10.4mph /  16.7km/h   48% 0.00in /  0mm 0.0 W/m2
04:10 31.3 °F /  -0.4 °C 13.9 °F /  -10.1 °C 30.53in /  1033.7hPa North 10.4mph /  16.7km/h   48% 0.00in /  0mm 0.0 W/m2
04:15 31.3 °F /  -0.4 °C 13.9 °F /  -10.1 °C 30.54in /  1034.1hPa North 10.4mph /  16.7km/h   48% 0.00in /  0mm 0.0 W/m2
04:20 31.3 °F /  -0.4 °C 13.9 °F /  -10.1 °C 30.54in /  1034.1hPa North 10.4mph /  16.7km/h   48% 0.00in /  0mm 0.0 W/m2
04:25 31.3 °F /  -0.4 °C 13.9 °F /  -10.1 °C 30.54in /  1034.1hPa North 10.4mph /  16.7km/h   48% 0.00in /  0mm 0.0 W/m2
04:30 31.3 °F /  -0.4 °C 13.9 °F /  -10.1 °C 30.54in /  1034.1hPa North 10.4mph /  16.7km/h   48% 0.00in /  0mm 0.0 W/m2
04:35 31.3 °F /  -0.4 °C 13.9 °F /  -10.1 °C 30.54in /  1034.1hPa North 10.4mph /  16.7km/h   48% 0.00in /  0mm 0.0 W/m2
04:40 31.3 °F /  -0.4 °C 13.9 °F /  -10.1 °C 30.54in /  1034.1hPa North 10.4mph /  16.7km/h   48% 0.00in /  0mm 0.0 W/m2
04:45 31.3 °F /  -0.4 °C 13.9 °F /  -10.1 °C 30.54in /  1034.1hPa North 10.4mph /  16.7km/h   48% 0.00in /  0mm 0.0 W/m2
04:50 31.3 °F /  -0.4 °C 13.9 °F /  -10.1 °C 30.54in /  1034.1hPa North 10.4mph /  16.7km/h   48% 0.00in /  0mm 0.0 W/m2
04:56 31.3 °F /  -0.4 °C 13.9 °F /  -10.1 °C 30.53in /  1033.7hPa North 10.4mph /  16.7km/h   48% 0.00in /  0mm 0.0 W/m2
05:01 31.3 °F /  -0.4 °C 13.9 °F /  -10.1 °C 30.53in /  1033.7hPa North 10.4mph /  16.7km/h   48% 0.00in /  0mm 0.0 W/m2
05:11 31.3 °F /  -0.4 °C 13.9 °F /  -10.1 °C 30.53in /  1033.7hPa North 10.4mph /  16.7km/h   48% 0.00in /  0mm 0.0 W/m2
05:16 31.3 °F /  -0.4 °C 13.9 °F /  -10.1 °C 30.53in /  1033.7hPa North 10.4mph /  16.7km/h   48% 0.00in /  0mm 0.0 W/m2
05:21 31.3 °F /  -0.4 °C 13.9 °F /  -10.1 °C 30.53in /  1033.7hPa North 10.4mph /  16.7km/h   48% 0.00in /  0mm 0.0 W/m2
05:26 31.3 °F /  -0.4 °C 13.9 °F /  -10.1 °C 30.53in /  1033.7hPa North 10.4mph /  16.7km/h   48% 0.00in /  0mm 0.0 W/m2
05:31 31.3 °F /  -0.4 °C 13.9 °F /  -10.1 °C 30.52in /  1033.4hPa North 10.4mph /  16.7km/h   48% 0.00in /  0mm 0.0 W/m2
05:36 31.3 °F /  -0.4 °C 13.9 °F /  -10.1 °C 30.52in /  1033.4hPa North 10.4mph /  16.7km/h   48% 0.00in /  0mm 0.0 W/m2
05:41 31.3 °F /  -0.4 °C 13.9 °F /  -10.1 °C 30.52in /  1033.4hPa North 10.4mph /  16.7km/h   48% 0.00in /  0mm 0.0 W/m2
05:46 31.3 °F /  -0.4 °C 13.9 °F /  -10.1 °C 30.52in /  1033.4hPa North 10.4mph /  16.7km/h   48% 0.00in /  0mm 0.0 W/m2
05:51 31.3 °F /  -0.4 °C 13.9 °F /  -10.1 °C 30.53in /  1033.7hPa North 10.4mph /  16.7km/h   48% 0.00in /  0mm 0.0 W/m2
05:56 31.3 °F /  -0.4 °C 13.9 °F /  -10.1 °C 30.52in /  1033.4hPa North 10.4mph /  16.7km/h   48% 0.00in /  0mm 0.0 W/m2
06:01 31.3 °F /  -0.4 °C 13.9 °F /  -10.1 °C 30.52in /  1033.4hPa North 10.4mph /  16.7km/h   48% 0.00in /  0mm 0.0 W/m2
06:06 31.3 °F /  -0.4 °C 13.9 °F /  -10.1 °C 30.52in /  1033.4hPa North 10.4mph /  16.7km/h   48% 0.00in /  0mm 0.0 W/m2
06:11 31.3 °F /  -0.4 °C 13.9 °F /  -10.1 °C 30.52in /  1033.4hPa North 10.4mph /  16.7km/h   48% 0.00in /  0mm 0.0 W/m2
06:17 31.3 °F /  -0.4 °C 13.9 °F /  -10.1 °C 30.52in /  1033.4hPa North 10.4mph /  16.7km/h   48% 0.00in /  0mm 0.0 W/m2
06:22 31.3 °F /  -0.4 °C 13.9 °F /  -10.1 °C 30.52in /  1033.4hPa North 10.4mph /  16.7km/h   48% 0.00in /  0mm 0.0 W/m2
06:27 31.3 °F /  -0.4 °C 13.9 °F /  -10.1 °C 30.53in /  1033.7hPa North 10.4mph /  16.7km/h   48% 0.00in /  0mm 0.0 W/m2
06:32 31.3 °F /  -0.4 °C 13.9 °F /  -10.1 °C 30.52in /  1033.4hPa North 10.4mph /  16.7km/h   48% 0.00in /  0mm 0.0 W/m2
06:37 31.3 °F /  -0.4 °C 13.9 °F /  -10.1 °C 30.52in /  1033.4hPa North 10.4mph /  16.7km/h   48% 0.00in /  0mm 0.0 W/m2
06:42 31.3 °F /  -0.4 °C 13.9 °F /  -10.1 °C 30.51in /  1033.1hPa North 10.4mph /  16.7km/h   48% 0.00in /  0mm 0.0 W/m2
06:47 31.3 °F /  -0.4 °C 13.9 °F /  -10.1 °C 30.52in /  1033.4hPa North 10.4mph /  16.7km/h   48% 0.00in /  0mm 0.0 W/m2
06:52 31.3 °F /  -0.4 °C 13.9 °F /  -10.1 °C 30.52in /  1033.4hPa North 10.4mph /  16.7km/h   48% 0.00in /  0mm 0.0 W/m2
06:57 31.3 °F /  -0.4 °C 13.9 °F /  -10.1 °C 30.52in /  1033.4hPa North 10.4mph /  16.7km/h   48% 0.00in /  0mm 0.0 W/m2
07:02 31.3 °F /  -0.4 °C 13.9 °F /  -10.1 °C 30.52in /  1033.4hPa North 10.4mph /  16.7km/h   48% 0.00in /  0mm 0.0 W/m2
07:07 31.3 °F /  -0.4 °C 13.9 °F /  -10.1 °C 30.52in /  1033.4hPa North 10.4mph /  16.7km/h   48% 0.00in /  0mm 0.0 W/m2
07:12 31.3 °F /  -0.4 °C 13.9 °F /  -10.1 °C 30.53in /  1033.7hPa North 10.4mph /  16.7km/h   48% 0.00in /  0mm 0.0 W/m2
07:17 31.3 °F /  -0.4 °C 13.9 °F /  -10.1 °C 30.53in /  1033.7hPa North 10.4mph /  16.7km/h   48% 0.00in /  0mm 0.0 W/m2 CLR
07:22 31.3 °F /  -0.4 °C 13.9 °F /  -10.1 °C 30.53in /  1033.7hPa North 10.4mph /  16.7km/h   48% 0.00in /  0mm 0.0 W/m2 CLR
07:27 31.3 °F /  -0.4 °C 13.9 °F /  -10.1 °C 30.53in /  1033.7hPa North 10.4mph /  16.7km/h   48% 0.00in /  0mm 0.0 W/m2 CLR
07:32 31.3 °F /  -0.4 °C 13.9 °F /  -10.1 °C 30.53in /  1033.7hPa North 10.4mph /  16.7km/h   48% 0.00in /  0mm 0.0 W/m2 CLR
07:38 31.3 °F /  -0.4 °C 13.9 °F /  -10.1 °C 30.53in /  1033.7hPa North 10.4mph /  16.7km/h   48% 0.00in /  0mm 0.0 W/m2 CLR
07:43 31.3 °F /  -0.4 °C 13.9 °F /  -10.1 °C 30.54in /  1034.1hPa North 10.4mph /  16.7km/h   48% 0.00in /  0mm 0.0 W/m2 CLR
07:48 31.3 °F /  -0.4 °C 13.9 °F /  -10.1 °C 30.54in /  1034.1hPa North 10.4mph /  16.7km/h   48% 0.00in /  0mm 0.0 W/m2 CLR
07:53 31.3 °F /  -0.4 °C 13.9 °F /  -10.1 °C 30.54in /  1034.1hPa North 10.4mph /  16.7km/h   48% 0.00in /  0mm 0.0 W/m2 CLR
07:58 31.3 °F /  -0.4 °C 13.9 °F /  -10.1 °C 30.54in /  1034.1hPa North 10.4mph /  16.7km/h   48% 0.00in /  0mm 0.0 W/m2 CLR
08:03 31.3 °F /  -0.4 °C 13.9 °F /  -10.1 °C 30.55in /  1034.4hPa North 10.4mph /  16.7km/h   48% 0.00in /  0mm 0.0 W/m2 CLR
08:08 31.3 °F /  -0.4 °C 13.9 °F /  -10.1 °C 30.54in /  1034.1hPa North 10.4mph /  16.7km/h   48% 0.00in /  0mm 0.0 W/m2 CLR
08:13 31.3 °F /  -0.4 °C 13.9 °F /  -10.1 °C 30.54in /  1034.1hPa North 10.4mph /  16.7km/h   48% 0.00in /  0mm 0.0 W/m2 CLR
08:18 31.3 °F /  -0.4 °C 13.9 °F /  -10.1 °C 30.54in /  1034.1hPa North 10.4mph /  16.7km/h   48% 0.00in /  0mm 0.0 W/m2 CLR
08:23 31.3 °F /  -0.4 °C 13.9 °F /  -10.1 °C 30.54in /  1034.1hPa North 10.4mph /  16.7km/h   48% 0.00in /  0mm 0.0 W/m2 CLR
08:28 31.3 °F /  -0.4 °C 13.9 °F /  -10.1 °C 30.54in /  1034.1hPa North 10.4mph /  16.7km/h   48% 0.00in /  0mm 0.0 W/m2 CLR
08:33 31.3 °F /  -0.4 °C 13.9 °F /  -10.1 °C 30.54in /  1034.1hPa North 10.4mph /  16.7km/h   48% 0.00in /  0mm 0.0 W/m2 CLR
08:38 31.3 °F /  -0.4 °C 13.9 °F /  -10.1 °C 30.55in /  1034.4hPa North 10.4mph /  16.7km/h   48% 0.00in /  0mm 0.0 W/m2 CLR
08:43 31.3 °F /  -0.4 °C 13.9 °F /  -10.1 °C 30.55in /  1034.4hPa North 10.4mph /  16.7km/h   48% 0.00in /  0mm 0.0 W/m2 CLR
08:48 31.3 °F /  -0.4 °C 13.9 °F /  -10.1 °C 30.54in /  1034.1hPa North 10.4mph /  16.7km/h   48% 0.00in /  0mm 0.0 W/m2 CLR
08:54 31.3 °F /  -0.4 °C 13.9 °F /  -10.1 °C 30.54in /  1034.1hPa North 10.4mph /  16.7km/h   48% 0.00in /  0mm 0.0 W/m2 CLR
08:59 31.3 °F /  -0.4 °C 13.9 °F /  -10.1 °C 30.54in /  1034.1hPa North 10.4mph /  16.7km/h   48% 0.00in /  0mm 0.0 W/m2 CLR
09:04 31.3 °F /  -0.4 °C 13.9 °F /  -10.1 °C 30.54in /  1034.1hPa North 10.4mph /  16.7km/h   48% 0.00in /  0mm 0.0 W/m2 OVC
09:09 31.3 °F /  -0.4 °C 13.9 °F /  -10.1 °C 30.54in /  1034.1hPa North 10.4mph /  16.7km/h   48% 0.00in /  0mm 0.0 W/m2 OVC
09:14 34.3 °F /  1.3 °C 24.5 °F /  -4.2 °C 30.53in /  1033.7hPa WNW 10.4mph /  16.7km/h 10.4mph /  16.7km/h 67% 0.00in /  0mm 0.0 W/m2 OVC
09:19 34.4 °F /  1.3 °C 24.6 °F /  -4.1 °C 30.54in /  1034.1hPa WNW 10.4mph /  16.7km/h 10.4mph /  16.7km/h 67% 0.00in /  0mm 0.0 W/m2 OVC
09:24 34.4 °F /  1.3 °C 24.6 °F /  -4.1 °C 30.54in /  1034.1hPa NW 10.4mph /  16.7km/h 10.4mph /  16.7km/h 67% 0.00in /  0mm 0.0 W/m2 OVC
09:29 34.8 °F /  1.6 °C 25.3 °F /  -3.7 °C 30.54in /  1034.1hPa WNW 10.4mph /  16.7km/h 10.4mph /  16.7km/h 68% 0.00in /  0mm 0.0 W/m2 OVC
09:39 36.0 °F /  2.2 °C 25.7 °F /  -3.5 °C 30.54in /  1034.1hPa WNW 10.4mph /  16.7km/h 10.4mph /  16.7km/h 66% 0.00in /  0mm 0.0 W/m2 OVC
09:44 36.1 °F /  2.3 °C 26.2 °F /  -3.2 °C 30.55in /  1034.4hPa WNW 10.4mph /  16.7km/h   67% 0.00in /  0mm 0.0 W/m2 OVC
09:49 36.5 °F /  2.5 °C 26.2 °F /  -3.2 °C 30.54in /  1034.1hPa NNW 10.4mph /  16.7km/h 10.4mph /  16.7km/h 66% 0.00in /  0mm 0.0 W/m2 OVC
09:55 37.3 °F /  2.9 °C 27.3 °F /  -2.6 °C 30.55in /  1034.4hPa NW 10.4mph /  16.7km/h 10.4mph /  16.7km/h 67% 0.00in /  0mm 0.0 W/m2 OVC
09:57 37.6 °F /  3.1 °C 27.3 °F /  -2.6 °C 30.55in /  1034.4hPa WNW 10.4mph /  16.7km/h 10.4mph /  16.7km/h 66% 0.00in /  0mm 0.0 W/m2 OVC
10:02 37.9 °F /  3.3 °C 27.2 °F /  -2.7 °C 30.55in /  1034.4hPa WNW 10.4mph /  16.7km/h   65% 0.00in /  0mm 0.0 W/m2 OVC
10:07 38.1 °F /  3.4 °C 27.4 °F /  -2.6 °C 30.55in /  1034.4hPa NNW 10.4mph /  16.7km/h 10.4mph /  16.7km/h 65% 0.00in /  0mm 0.0 W/m2 OVC
10:12 38.3 °F /  3.5 °C 27.6 °F /  -2.4 °C 30.55in /  1034.4hPa WNW 10.4mph /  16.7km/h 10.4mph /  16.7km/h 65% 0.00in /  0mm 0.0 W/m2 OVC
10:17 38.5 °F /  3.6 °C 27.7 °F /  -2.4 °C 30.55in /  1034.4hPa North 10.4mph /  16.7km/h 10.4mph /  16.7km/h 65% 0.00in /  0mm 0.0 W/m2 OVC
10:27 38.9 °F /  3.8 °C 28.1 °F /  -2.2 °C 30.56in /  1034.8hPa NE 10.4mph /  16.7km/h 10.4mph /  16.7km/h 65% 0.00in /  0mm 0.0 W/m2 OVC
10:33 39.5 °F /  4.2 °C 29.1 °F /  -1.6 °C 30.55in /  1034.4hPa NNE 10.4mph /  16.7km/h 10.4mph /  16.7km/h 66% 0.00in /  0mm 0.0 W/m2 OVC
10:38 40.1 °F /  4.5 °C 29.3 °F /  -1.5 °C 30.55in /  1034.4hPa West 10.4mph /  16.7km/h 10.4mph /  16.7km/h 65% 0.00in /  0mm 0.0 W/m2 OVC
10:48 41.4 °F /  5.2 °C 29.7 °F /  -1.3 °C 30.54in /  1034.1hPa WNW 10.4mph /  16.7km/h 10.4mph /  16.7km/h 63% 0.00in /  0mm 0.0 W/m2 OVC
10:53 42.0 °F /  5.6 °C 29.9 °F /  -1.2 °C 30.54in /  1034.1hPa West 10.4mph /  16.7km/h 10.4mph /  16.7km/h 62% 0.00in /  0mm 0.0 W/m2 OVC
10:58 42.2 °F /  5.7 °C 30.1 °F /  -1.1 °C 30.54in /  1034.1hPa WSW 10.4mph /  16.7km/h 10.4mph /  16.7km/h 62% 0.00in /  0mm 0.0 W/m2 OVC
11:03 42.6 °F /  5.9 °C 30.5 °F /  -0.8 °C 30.54in /  1034.1hPa WNW 10.4mph /  16.7km/h 10.4mph /  16.7km/h 62% 0.00in /  0mm 0.0 W/m2 OVC
11:08 43.1 °F /  6.2 °C 30.6 °F /  -0.8 °C 30.54in /  1034.1hPa NW 10.4mph /  16.7km/h 10.4mph /  16.7km/h 61% 0.00in /  0mm 0.0 W/m2 OVC
11:13 43.9 °F /  6.6 °C 30.9 °F /  -0.6 °C 30.54in /  1034.1hPa West 10.4mph /  16.7km/h 10.4mph /  16.7km/h 60% 0.00in /  0mm 0.0 W/m2 OVC
11:18 44.8 °F /  7.1 °C 31.3 °F /  -0.4 °C 30.53in /  1033.7hPa NW 10.4mph /  16.7km/h 10.4mph /  16.7km/h 59% 0.01in /  0.25mm 0.0 W/m2 RA
11:23 45.3 °F /  7.4 °C 31.4 °F /  -0.3 °C 30.53in /  1033.7hPa West 10.4mph /  16.7km/h 10.4mph /  16.7km/h 58% 0.01in /  0.25mm 0.0 W/m2 OVC
11:28 45.6 °F /  7.6 °C 31.2 °F /  -0.4 °C 30.52in /  1033.4hPa NW 10.4mph /  16.7km/h 10.4mph /  16.7km/h 57% 0.02in /  0.51mm 0.0 W/m2 OVC
11:33 46.0 °F /  7.8 °C 31.2 °F /  -0.4 °C 30.52in /  1033.4hPa NW 10.4mph /  16.7km/h 10.4mph /  16.7km/h 56% 0.03in /  0.76mm 0.0 W/m2 RA
11:39 46.9 °F /  8.3 °C 32.0 °F /  0 °C 30.51in /  1033.1hPa West 10.4mph /  16.7km/h 10.4mph /  16.7km/h 56% 0.03in /  0.76mm 0.0 W/m2 OVC
11:44 46.9 °F /  8.3 °C 31.6 °F /  -0.2 °C 30.51in /  1033.1hPa NW 10.4mph /  16.7km/h 10.4mph /  16.7km/h 55% 0.03in /  0.76mm 0.0 W/m2 OVC
11:49 47.0 °F /  8.3 °C 32.1 °F /  0.1 °C 30.50in /  1032.7hPa NW 10.4mph /  16.7km/h 10.4mph /  16.7km/h 56% 0.04in /  1.02mm 0.0 W/m2 OVC
11:54 47.7 °F /  8.7 °C 31.9 °F /  -0.1 °C 30.49in /  1032.4hPa NNW 10.4mph /  16.7km/h 10.4mph /  16.7km/h 54% 0.04in /  1.02mm 0.0 W/m2 OVC
11:59 48.2 °F /  9 °C 32.3 °F /  0.2 °C 30.49in /  1032.4hPa WNW 10.4mph /  16.7km/h 10.4mph /  16.7km/h 54% 0.05in /  1.27mm 0.0 W/m2 RA
12:04 48.7 °F /  9.3 °C 32.3 °F /  0.2 °C 30.48in /  1032.1hPa NW 10.4mph /  16.7km/h 10.4mph /  16.7km/h 53% 0.05in /  1.27mm 0.0 W/m2 OVC
12:09 48.8 °F /  9.3 °C 32.9 °F /  0.5 °C 30.47in /  1031.7hPa WNW 10.4mph /  16.7km/h 10.4mph /  16.7km/h 54% 0.05in /  1.27mm 0.0 W/m2 OVC
12:14 48.9 °F /  9.4 °C 32.0 °F /  0 °C 30.47in /  1031.7hPa NW 10.4mph /  16.7km/h 10.4mph /  16.7km/h 52% 0.05in /  1.27mm 0.0 W/m2 OVC
12:19 48.4 °F /  9.1 °C 32.5 °F /  0.3 °C 30.46in /  1031.4hPa NW 10.4mph /  16.7km/h 10.4mph /  16.7km/h 54% 0.05in /  1.27mm 0.0 W/m2 OVC
12:24 48.9 °F /  9.4 °C 33.0 °F /  0.6 °C 30.46in /  1031.4hPa ENE 10.4mph /  16.7km/h 10.4mph /  16.7km/h 54% 0.05in /  1.27mm 0.0 W/m2 OVC
12:29 49.1 °F /  9.5 °C 33.2 °F /  0.7 °C 30.45in /  1031hPa NW 10.4mph /  16.7km/h 10.4mph /  16.7km/h 54% 0.04in /  1.02mm 0.0 W/m2 OVC
12:34 49.7 °F /  9.8 °C 33.7 °F /  0.9 °C 30.45in /  1031hPa NNW 10.4mph /  16.7km/h 10.4mph /  16.7km/h 54% 0.03in /  0.76mm 0.0 W/m2 OVC
12:39 50.5 °F /  10.3 °C 34.9 °F /  1.6 °C 30.44in /  1030.7hPa NW 10.4mph /  16.7km/h 10.4mph /  16.7km/h 55% 0.04in /  1.02mm 0.0 W/m2 OVC
12:44 50.7 °F /  10.4 °C 34.6 °F /  1.4 °C 30.43in /  1030.4hPa NNW 10.4mph /  16.7km/h 10.4mph /  16.7km/h 54% 0.04in /  1.02mm 0.0 W/m2 OVC
12:50 51.4 °F /  10.8 °C 34.3 °F /  1.3 °C 30.43in /  1030.4hPa NW 10.4mph /  16.7km/h 10.4mph /  16.7km/h 52% 0.03in /  0.76mm 0.0 W/m2 OVC
12:55 51.7 °F /  10.9 °C 34.1 °F /  1.2 °C 30.43in /  1030.4hPa NW 10.4mph /  16.7km/h 10.4mph /  16.7km/h 51% 0.03in /  0.76mm 0.0 W/m2 OVC
13:00 51.9 °F /  11.1 °C 35.3 °F /  1.8 °C 30.42in /  1030hPa West 10.4mph /  16.7km/h 10.4mph /  16.7km/h 53% 0.03in /  0.76mm 0.0 W/m2 OVC
13:05 52.5 °F /  11.4 °C 35.4 °F /  1.9 °C 30.42in /  1030hPa WNW 10.4mph /  16.7km/h 10.4mph /  16.7km/h 52% 0.03in /  0.76mm 0.0 W/m2 OVC
13:10 52.5 °F /  11.4 °C 35.4 °F /  1.9 °C 30.41in /  1029.7hPa NW 10.4mph /  16.7km/h 10.4mph /  16.7km/h 52% 0.03in /  0.76mm 0.0 W/m2 OVC
13:15 52.9 °F /  11.6 °C 36.2 °F /  2.3 °C 30.40in /  1029.3hPa NW 10.4mph /  16.7km/h 10.4mph /  16.7km/h 53% 0.02in /  0.51mm 0.0 W/m2 OVC
13:20 53.0 °F /  11.7 °C 35.8 °F /  2.1 °C 30.40in /  1029.3hPa WNW 10.4mph /  16.7km/h 10.4mph /  16.7km/h 52% 0.02in /  0.51mm 0.0 W/m2 OVC
13:25 52.7 °F /  11.5 °C 36.5 °F /  2.5 °C 30.38in /  1028.7hPa NW 10.4mph /  16.7km/h 10.4mph /  16.7km/h 54% 0.03in /  0.76mm 0.0 W/m2 RA
13:30 52.8 °F /  11.6 °C 36.6 °F /  2.6 °C 30.38in /  1028.7hPa NW 10.4mph /  16.7km/h 10.4mph /  16.7km/h 54% 0.03in /  0.76mm 0.0 W/m2 OVC
13:35 52.8 °F /  11.6 °C 36.1 °F /  2.3 °C 30.38in /  1028.7hPa NW 10.4mph /  16.7km/h 10.4mph /  16.7km/h 53% 0.02in /  0.51mm 0.0 W/m2 OVC
13:40 52.8 °F /  11.6 °C 35.6 °F /  2 °C 30.38in /  1028.7hPa NW 10.4mph /  16.7km/h 10.4mph /  16.7km/h 52% 0.02in /  0.51mm 0.0 W/m2 OVC
13:45 52.4 °F /  11.3 °C 35.8 °F /  2.1 °C 30.38in /  1028.7hPa NE 10.4mph /  16.7km/h 10.4mph /  16.7km/h 53% 0.02in /  0.51mm 0.0 W/m2 OVC
13:50 52.5 °F /  11.4 °C 36.3 °F /  2.4 °C 30.38in /  1028.7hPa NW 10.4mph /  16.7km/h 10.4mph /  16.7km/h 54% 0.02in /  0.51mm 0.0 W/m2 OVC
13:55 52.6 °F /  11.4 °C 36.4 °F /  2.4 °C 30.38in /  1028.7hPa NW 10.4mph /  16.7km/h 10.4mph /  16.7km/h 54% 0.02in /  0.51mm 0.0 W/m2 OVC
14:00 52.7 °F /  11.5 °C 36.5 °F /  2.5 °C 30.38in /  1028.7hPa NW 10.4mph /  16.7km/h 10.4mph /  16.7km/h 54% 0.01in /  0.25mm 0.0 W/m2 OVC
14:06 52.8 °F /  11.6 °C 36.1 °F /  2.3 °C 30.38in /  1028.7hPa NW 10.4mph /  16.7km/h 10.4mph /  16.7km/h 53% 0.01in /  0.25mm 0.0 W/m2 OVC
14:11 53.0 °F /  11.7 °C 36.3 °F /  2.4 °C 30.37in /  1028.3hPa NW 10.4mph /  16.7km/h 10.4mph /  16.7km/h 53% 0.01in /  0.25mm 0.0 W/m2 OVC
14:16 52.9 °F /  11.6 °C 36.7 °F /  2.6 °C 30.37in /  1028.3hPa NW 10.4mph /  16.7km/h 10.4mph /  16.7km/h 54% 0.01in /  0.25mm 0.0 W/m2 OVC
14:21 53.0 °F /  11.7 °C 36.8 °F /  2.7 °C 30.36in /  1028hPa NW 10.4mph /  16.7km/h 10.4mph /  16.7km/h 54% 0.01in /  0.25mm 0.0 W/m2 OVC
14:26 53.1 °F /  11.7 °C 36.4 °F /  2.4 °C 30.37in /  1028.3hPa NW 10.4mph /  16.7km/h 10.4mph /  16.7km/h 53% 0.00in /  0mm 0.0 W/m2 OVC
14:31 53.1 °F /  11.7 °C 37.3 °F /  2.9 °C 30.37in /  1028.3hPa NW 10.4mph /  16.7km/h 10.4mph /  16.7km/h 55% 0.00in /  0mm 0.0 W/m2 OVC
14:36 53.0 °F /  11.7 °C 36.8 °F /  2.7 °C 30.37in /  1028.3hPa NW 10.4mph /  16.7km/h 10.4mph /  16.7km/h 54% 0.00in /  0mm 0.0 W/m2 OVC
14:41 52.9 °F /  11.6 °C 36.7 °F /  2.6 °C 30.37in /  1028.3hPa NW 10.4mph /  16.7km/h 10.4mph /  16.7km/h 54% 0.00in /  0mm 0.0 W/m2 OVC
14:46 53.0 °F /  11.7 °C 37.7 °F /  3.2 °C 30.36in /  1028hPa NW 10.4mph /  16.7km/h 10.4mph /  16.7km/h 56% 0.00in /  0mm 0.0 W/m2 OVC
14:51 53.2 °F /  11.8 °C 37.4 °F /  3 °C 30.36in /  1028hPa WNW 10.4mph /  16.7km/h 10.4mph /  16.7km/h 55% 0.00in /  0mm 0.0 W/m2 OVC
14:56 53.4 °F /  11.9 °C 37.6 °F /  3.1 °C 30.36in /  1028hPa WNW 10.4mph /  16.7km/h 10.4mph /  16.7km/h 55% 0.00in /  0mm 0.0 W/m2 OVC
15:01 53.6 °F /  12 °C 37.8 °F /  3.2 °C 30.36in /  1028hPa NW 10.4mph /  16.7km/h 10.4mph /  16.7km/h 55% 0.00in /  0mm 0.0 W/m2 OVC
15:06 53.5 °F /  11.9 °C 37.7 °F /  3.2 °C 30.36in /  1028hPa NW 10.4mph /  16.7km/h 10.4mph /  16.7km/h 55% 0.00in /  0mm 0.0 W/m2 OVC
15:12 53.7 °F /  12.1 °C 37.9 °F /  3.3 °C 30.36in /  1028hPa NW 10.4mph /  16.7km/h 10.4mph /  16.7km/h 55% 0.00in /  0mm 0.0 W/m2 OVC
15:17 53.9 °F /  12.2 °C 38.1 °F /  3.4 °C 30.36in /  1028hPa WNW 10.4mph /  16.7km/h 10.4mph /  16.7km/h 55% 0.00in /  0mm 0.0 W/m2 OVC
15:22 54.1 °F /  12.3 °C 38.3 °F /  3.5 °C 30.37in /  1028.3hPa West 10.4mph /  16.7km/h 10.4mph /  16.7km/h 55% 0.00in /  0mm 0.0 W/m2 OVC
15:27 54.1 °F /  12.3 °C 38.3 °F /  3.5 °C 30.36in /  1028hPa NW 10.4mph /  16.7km/h 10.4mph /  16.7km/h 55% 0.00in /  0mm 0.0 W/m2 OVC
15:32 54.2 °F /  12.3 °C 38.4 °F /  3.6 °C 30.36in /  1028hPa NW 10.4mph /  16.7km/h 10.4mph /  16.7km/h 55% 0.00in /  0mm 0.0 W/m2 OVC
15:37 54.2 °F /  12.3 °C 38.4 °F /  3.6 °C 30.36in /  1028hPa WNW 10.4mph /  16.7km/h 10.4mph /  16.7km/h 55% 0.00in /  0mm 0.0 W/m2 OVC
15:42 54.3 °F /  12.4 °C 38.5 °F /  3.6 °C 30.36in /  1028hPa NNE 10.4mph /  16.7km/h 10.4mph /  16.7km/h 55% 0.00in /  0mm 0.0 W/m2 OVC
15:47 54.5 °F /  12.5 °C 39.1 °F /  3.9 °C 30.36in /  1028hPa NW 10.4mph /  16.7km/h   56% 0.00in /  0mm 0.0 W/m2 OVC
15:52 54.5 °F /  12.5 °C 38.7 °F /  3.7 °C 30.36in /  1028hPa WNW 10.4mph /  16.7km/h 10.4mph /  16.7km/h 55% 0.00in /  0mm 0.0 W/m2 OVC
15:57 54.4 °F /  12.4 °C 38.6 °F /  3.7 °C 30.36in /  1028hPa WNW 10.4mph /  16.7km/h 10.4mph /  16.7km/h 55% 0.00in /  0mm 0.0 W/m2 OVC
16:02 54.4 °F /  12.4 °C 39.0 °F /  3.9 °C 30.36in /  1028hPa NW 10.4mph /  16.7km/h 10.4mph /  16.7km/h 56% 0.00in /  0mm 0.0 W/m2 CLR
16:07 54.3 °F /  12.4 °C 38.9 °F /  3.8 °C 30.36in /  1028hPa West 10.4mph /  16.7km/h 10.4mph /  16.7km/h 56% 0.00in /  0mm 0.0 W/m2 CLR
16:13 54.3 °F /  12.4 °C 38.9 °F /  3.8 °C 30.36in /  1028hPa WNW 10.4mph /  16.7km/h 10.4mph /  16.7km/h 56% 0.00in /  0mm 0.0 W/m2 CLR
16:18 54.3 °F /  12.4 °C 38.9 °F /  3.8 °C 30.36in /  1028hPa NW 10.4mph /  16.7km/h 10.4mph /  16.7km/h 56% 0.00in /  0mm 0.0 W/m2 CLR
16:23 54.3 °F /  12.4 °C 39.4 °F /  4.1 °C 30.37in /  1028.3hPa WNW 10.4mph /  16.7km/h   57% 0.00in /  0mm 0.0 W/m2 CLR
16:28 54.2 °F /  12.3 °C 38.8 °F /  3.8 °C 30.36in /  1028hPa NW 10.4mph /  16.7km/h 10.4mph /  16.7km/h 56% 0.00in /  0mm 0.0 W/m2 CLR
16:33 54.3 °F /  12.4 °C 38.9 °F /  3.8 °C 30.36in /  1028hPa West 10.4mph /  16.7km/h 10.4mph /  16.7km/h 56% 0.00in /  0mm 0.0 W/m2 CLR
16:38 54.2 °F /  12.3 °C 39.3 °F /  4.1 °C 30.37in /  1028.3hPa West 10.4mph /  16.7km/h   57% 0.00in /  0mm 0.0 W/m2 CLR
16:43 54.2 °F /  12.3 °C 39.3 °F /  4.1 °C 30.37in /  1028.3hPa West 10.4mph /  16.7km/h 10.4mph /  16.7km/h 57% 0.00in /  0mm 0.0 W/m2 CLR
16:48 54.2 °F /  12.3 °C 39.3 °F /  4.1 °C 30.38in /  1028.7hPa NNW 10.4mph /  16.7km/h 10.4mph /  16.7km/h 57% 0.00in /  0mm 0.0 W/m2 CLR
16:53 54.2 °F /  12.3 °C 39.3 °F /  4.1 °C 30.38in /  1028.7hPa NNW 10.4mph /  16.7km/h   57% 0.00in /  0mm 0.0 W/m2 CLR
16:58 54.0 °F /  12.2 °C 39.1 °F /  3.9 °C 30.38in /  1028.7hPa NNW 10.4mph /  16.7km/h 10.4mph /  16.7km/h 57% 0.00in /  0mm 0.0 W/m2 CLR
17:03 54.1 °F /  12.3 °C 39.2 °F /  4 °C 30.38in /  1028.7hPa NNW 10.4mph /  16.7km/h   57% 0.00in /  0mm 0.0 W/m2 CLR
17:08 53.9 °F /  12.2 °C 39.5 °F /  4.2 °C 30.37in /  1028.3hPa NNW 10.4mph /  16.7km/h   58% 0.00in /  0mm 0.0 W/m2 CLR
17:13 53.7 °F /  12.1 °C 39.3 °F /  4.1 °C 30.37in /  1028.3hPa NNW 10.4mph /  16.7km/h   58% 0.00in /  0mm 0.0 W/m2 CLR
17:18 53.5 °F /  11.9 °C 39.5 °F /  4.2 °C 30.37in /  1028.3hPa NNW 10.4mph /  16.7km/h   59% 0.00in /  0mm 0.0 W/m2 CLR
17:24 53.4 °F /  11.9 °C 39.4 °F /  4.1 °C 30.37in /  1028.3hPa NNW 10.4mph /  16.7km/h 10.4mph /  16.7km/h 59% 0.00in /  0mm 0.0 W/m2 CLR
17:29 53.4 °F /  11.9 °C 39.4 °F /  4.1 °C 30.37in /  1028.3hPa NNW 10.4mph /  16.7km/h   59% 0.00in /  0mm 0.0 W/m2 CLR
17:34 53.3 °F /  11.8 °C 39.8 °F /  4.3 °C 30.37in /  1028.3hPa NNW 10.4mph /  16.7km/h   60% 0.00in /  0mm 0.0 W/m2 CLR
17:39 53.2 °F /  11.8 °C 39.7 °F /  4.3 °C 30.37in /  1028.3hPa NNW 10.4mph /  16.7km/h   60% 0.00in /  0mm 0.0 W/m2 CLR
17:44 53.0 °F /  11.7 °C 39.5 °F /  4.2 °C 30.36in /  1028hPa NNW 10.4mph /  16.7km/h 10.4mph /  16.7km/h 60% 0.00in /  0mm 0.0 W/m2 CLR
17:49 53.0 °F /  11.7 °C 39.9 °F /  4.4 °C 30.35in /  1027.7hPa NNW 10.4mph /  16.7km/h   61% 0.00in /  0mm 0.0 W/m2 CLR
17:54 52.8 °F /  11.6 °C 39.7 °F /  4.3 °C 30.35in /  1027.7hPa NNW 10.4mph /  16.7km/h   61% 0.00in /  0mm 0.0 W/m2 CLR
17:59 52.6 °F /  11.4 °C 39.5 °F /  4.2 °C 30.35in /  1027.7hPa NNW 10.4mph /  16.7km/h   61% 0.00in /  0mm 0.0 W/m2 CLR
18:04 52.6 °F /  11.4 °C 39.5 °F /  4.2 °C 30.35in /  1027.7hPa NW 10.4mph /  16.7km/h 10.4mph /  16.7km/h 61% 0.00in /  0mm 0.0 W/m2
18:09 52.5 °F /  11.4 °C 39.4 °F /  4.1 °C 30.35in /  1027.7hPa NW 10.4mph /  16.7km/h 10.4mph /  16.7km/h 61% 0.00in /  0mm 0.0 W/m2
18:14 52.5 °F /  11.4 °C 39.4 °F /  4.1 °C 30.35in /  1027.7hPa NW 10.4mph /  16.7km/h   61% 0.00in /  0mm 0.0 W/m2
18:19 52.5 °F /  11.4 °C 39.8 °F /  4.3 °C 30.35in /  1027.7hPa NW 10.4mph /  16.7km/h 10.4mph /  16.7km/h 62% 0.00in /  0mm 0.0 W/m2
18:24 52.4 °F /  11.3 °C 39.8 °F /  4.3 °C 30.35in /  1027.7hPa NW 10.4mph /  16.7km/h 10.4mph /  16.7km/h 62% 0.00in /  0mm 0.0 W/m2
18:29 52.5 °F /  11.4 °C 39.8 °F /  4.3 °C 30.35in /  1027.7hPa NW 10.4mph /  16.7km/h 10.4mph /  16.7km/h 62% 0.00in /  0mm 0.0 W/m2
18:34 52.5 °F /  11.4 °C 39.8 °F /  4.3 °C 30.35in /  1027.7hPa NW 10.4mph /  16.7km/h   62% 0.00in /  0mm 0.0 W/m2
18:39 52.5 °F /  11.4 °C 40.3 °F /  4.6 °C 30.36in /  1028hPa NW 10.4mph /  16.7km/h   63% 0.00in /  0mm 0.0 W/m2
18:44 52.4 °F /  11.3 °C 40.2 °F /  4.6 °C 30.36in /  1028hPa NW 10.4mph /  16.7km/h   63% 0.00in /  0mm 0.0 W/m2
18:49 52.3 °F /  11.3 °C 40.1 °F /  4.5 °C 30.36in /  1028hPa North 10.4mph /  16.7km/h   63% 0.00in /  0mm 0.0 W/m2
18:55 52.3 °F /  11.3 °C 40.1 °F /  4.5 °C 30.36in /  1028hPa NW 10.4mph /  16.7km/h 10.4mph /  16.7km/h 63% 0.00in /  0mm 0.0 W/m2
19:00 52.5 °F /  11.4 °C 40.3 °F /  4.6 °C 30.36in /  1028hPa NW 10.4mph /  16.7km/h 10.4mph /  16.7km/h 63% 0.00in /  0mm 0.0 W/m2
19:05 52.5 °F /  11.4 °C 40.3 °F /  4.6 °C 30.36in /  1028hPa NW 10.4mph /  16.7km/h 10.4mph /  16.7km/h 63% 0.00in /  0mm 0.0 W/m2
19:10 52.6 °F /  11.4 °C 40.4 °F /  4.7 °C 30.35in /  1027.7hPa NW 10.4mph /  16.7km/h 10.4mph /  16.7km/h 63% 0.00in /  0mm 0.0 W/m2
19:15 52.6 °F /  11.4 °C 40.4 °F /  4.7 °C 30.36in /  1028hPa NW 10.4mph /  16.7km/h   63% 0.00in /  0mm 0.0 W/m2
19:20 52.6 °F /  11.4 °C 40.4 °F /  4.7 °C 30.35in /  1027.7hPa NW 10.4mph /  16.7km/h 10.4mph /  16.7km/h 63% 0.00in /  0mm 0.0 W/m2
19:25 52.8 °F /  11.6 °C 40.5 °F /  4.7 °C 30.35in /  1027.7hPa NW 10.4mph /  16.7km/h 10.4mph /  16.7km/h 63% 0.00in /  0mm 0.0 W/m2
19:30 52.9 °F /  11.6 °C 40.6 °F /  4.8 °C 30.35in /  1027.7hPa NW 10.4mph /  16.7km/h 10.4mph /  16.7km/h 63% 0.00in /  0mm 0.0 W/m2
19:35 53.0 °F /  11.7 °C 41.1 °F /  5.1 °C 30.35in /  1027.7hPa NW 10.4mph /  16.7km/h 10.4mph /  16.7km/h 64% 0.00in /  0mm 0.0 W/m2
19:40 53.2 °F /  11.8 °C 41.3 °F /  5.2 °C 30.35in /  1027.7hPa NW 10.4mph /  16.7km/h 10.4mph /  16.7km/h 64% 0.00in /  0mm 0.0 W/m2
19:45 53.5 °F /  11.9 °C 41.6 °F /  5.3 °C 30.34in /  1027.3hPa NW 10.4mph /  16.7km/h 10.4mph /  16.7km/h 64% 0.00in /  0mm 0.0 W/m2
19:50 53.7 °F /  12.1 °C 41.8 °F /  5.4 °C 30.34in /  1027.3hPa NW 10.4mph /  16.7km/h 10.4mph /  16.7km/h 64% 0.00in /  0mm 0.0 W/m2
19:56 54.1 °F /  12.3 °C 42.2 °F /  5.7 °C 30.35in /  1027.7hPa North 10.4mph /  16.7km/h 10.4mph /  16.7km/h 64% 0.00in /  0mm 0.0 W/m2
20:01 54.4 °F /  12.4 °C 42.1 °F /  5.6 °C 30.35in /  1027.7hPa NW 10.4mph /  16.7km/h 10.4mph /  16.7km/h 63% 0.00in /  0mm 0.0 W/m2
20:06 54.5 °F /  12.5 °C 42.6 °F /  5.9 °C 30.34in /  1027.3hPa NW 10.4mph /  16.7km/h 10.4mph /  16.7km/h 64% 0.00in /  0mm 0.0 W/m2
20:11 54.7 °F /  12.6 °C 42.3 °F /  5.7 °C 30.34in /  1027.3hPa NW 10.4mph /  16.7km/h 10.4mph /  16.7km/h 63% 0.00in /  0mm 0.0 W/m2
20:16 54.8 °F /  12.7 °C 42.4 °F /  5.8 °C 30.34in /  1027.3hPa NW 10.4mph /  16.7km/h 10.4mph /  16.7km/h 63% 0.00in /  0mm 0.0 W/m2
20:21 54.8 °F /  12.7 °C 42.4 °F /  5.8 °C 30.34in /  1027.3hPa WNW 10.4mph /  16.7km/h 10.4mph /  16.7km/h 63% 0.00in /  0mm 0.0 W/m2
20:26 54.9 °F /  12.7 °C 42.9 °F /  6.1 °C 30.34in /  1027.3hPa NW 10.4mph /  16.7km/h 10.4mph /  16.7km/h 64% 0.00in /  0mm 0.0 W/m2
20:31 54.8 °F /  12.7 °C 42.9 °F /  6.1 °C 30.34in /  1027.3hPa NW 10.4mph /  16.7km/h 10.4mph /  16.7km/h 64% 0.00in /  0mm 0.0 W/m2
20:36 54.9 °F /  12.7 °C 42.9 °F /  6.1 °C 30.34in /  1027.3hPa NW 10.4mph /  16.7km/h 10.4mph /  16.7km/h 64% 0.00in /  0mm 0.0 W/m2
20:41 55.1 °F /  12.8 °C 42.7 °F /  5.9 °C 30.33in /  1027hPa NW 10.4mph /  16.7km/h 10.4mph /  16.7km/h 63% 0.00in /  0mm 0.0 W/m2
20:46 55.1 °F /  12.8 °C 42.7 °F /  5.9 °C 30.33in /  1027hPa NW 10.4mph /  16.7km/h 10.4mph /  16.7km/h 63% 0.00in /  0mm 0.0 W/m2
20:51 55.2 °F /  12.9 °C 42.8 °F /  6 °C 30.33in /  1027hPa NW 10.4mph /  16.7km/h 10.4mph /  16.7km/h 63% 0.00in /  0mm 0.0 W/m2
20:56 55.2 °F /  12.9 °C 42.8 °F /  6 °C 30.34in /  1027.3hPa NW 10.4mph /  16.7km/h 10.4mph /  16.7km/h 63% 0.00in /  0mm 0.0 W/m2
21:01 55.2 °F /  12.9 °C 42.8 °F /  6 °C 30.34in /  1027.3hPa NW 10.4mph /  16.7km/h 10.4mph /  16.7km/h 63% 0.00in /  0mm 0.0 W/m2
21:07 55.1 °F /  12.8 °C 42.7 °F /  5.9 °C 30.34in /  1027.3hPa NW 10.4mph /  16.7km/h 10.4mph /  16.7km/h 63% 0.00in /  0mm 0.0 W/m2
21:12 55.1 °F /  12.8 °C 43.1 °F /  6.2 °C 30.33in /  1027hPa WNW 10.4mph /  16.7km/h 10.4mph /  16.7km/h 64% 0.00in /  0mm 0.0 W/m2
21:17 55.1 °F /  12.8 °C 43.1 °F /  6.2 °C 30.34in /  1027.3hPa WNW 10.4mph /  16.7km/h 10.4mph /  16.7km/h 64% 0.00in /  0mm 0.0 W/m2
21:22 55.2 °F /  12.9 °C 43.2 °F /  6.2 °C 30.34in /  1027.3hPa North 10.4mph /  16.7km/h 10.4mph /  16.7km/h 64% 0.00in /  0mm 0.0 W/m2
21:27 55.2 °F /  12.9 °C 43.6 °F /  6.4 °C 30.34in /  1027.3hPa NNW 10.4mph /  16.7km/h 10.4mph /  16.7km/h 65% 0.00in /  0mm 0.0 W/m2
21:32 55.3 °F /  12.9 °C 43.7 °F /  6.5 °C 30.34in /  1027.3hPa NW 10.4mph /  16.7km/h 10.4mph /  16.7km/h 65% 0.00in /  0mm 0.0 W/m2
21:37 55.3 °F /  12.9 °C 44.1 °F /  6.7 °C 30.34in /  1027.3hPa NW 10.4mph /  16.7km/h 10.4mph /  16.7km/h 66% 0.00in /  0mm 0.0 W/m2
21:43 55.3 °F /  12.9 °C 44.1 °F /  6.7 °C 30.34in /  1027.3hPa NW 10.4mph /  16.7km/h   66% 0.00in /  0mm 0.0 W/m2
21:48 55.1 °F /  12.8 °C 44.3 °F /  6.8 °C 30.34in /  1027.3hPa NW 10.4mph /  16.7km/h 10.4mph /  16.7km/h 67% 0.00in /  0mm 0.0 W/m2
21:53 55.0 °F /  12.8 °C 44.2 °F /  6.8 °C 30.34in /  1027.3hPa NW 10.4mph /  16.7km/h   67% 0.00in /  0mm 0.0 W/m2
21:58 54.9 °F /  12.7 °C 44.1 °F /  6.7 °C 30.34in /  1027.3hPa NNW 10.4mph /  16.7km/h 10.4mph /  16.7km/h 67% 0.00in /  0mm 0.0 W/m2
22:03 54.8 °F /  12.7 °C 44.0 °F /  6.7 °C 30.34in /  1027.3hPa NW 10.4mph /  16.7km/h 10.4mph /  16.7km/h 67% 0.00in /  0mm 0.0 W/m2
22:08 54.8 °F /  12.7 °C 44.0 °F /  6.7 °C 30.34in /  1027.3hPa NW 10.4mph /  16.7km/h   67% 0.00in /  0mm 0.0 W/m2
22:13 54.7 °F /  12.6 °C 44.3 °F /  6.8 °C 30.34in /  1027.3hPa NW 10.4mph /  16.7km/h 10.4mph /  16.7km/h 68% 0.00in /  0mm 0.0 W/m2
22:18 54.9 °F /  12.7 °C 44.1 °F /  6.7 °C 30.34in /  1027.3hPa WNW 10.4mph /  16.7km/h 10.4mph /  16.7km/h 67% 0.00in /  0mm 0.0 W/m2
22:23 55.0 °F /  12.8 °C 44.2 °F /  6.8 °C 30.34in /  1027.3hPa NW 10.4mph /  16.7km/h 10.4mph /  16.7km/h 67% 0.00in /  0mm 0.0 W/m2
22:28 54.9 °F /  12.7 °C 44.1 °F /  6.7 °C 30.34in /  1027.3hPa WNW 10.4mph /  16.7km/h 10.4mph /  16.7km/h 67% 0.00in /  0mm 0.0 W/m2
22:33 55.0 °F /  12.8 °C 44.2 °F /  6.8 °C 30.34in /  1027.3hPa North 10.4mph /  16.7km/h 10.4mph /  16.7km/h 67% 0.00in /  0mm 0.0 W/m2
22:38 54.9 °F /  12.7 °C 44.1 °F /  6.7 °C 30.35in /  1027.7hPa NW 10.4mph /  16.7km/h 10.4mph /  16.7km/h 67% 0.00in /  0mm 0.0 W/m2
22:44 55.0 °F /  12.8 °C 43.8 °F /  6.6 °C 30.35in /  1027.7hPa NW 10.4mph /  16.7km/h   66% 0.00in /  0mm 0.0 W/m2
22:49 54.9 °F /  12.7 °C 43.7 °F /  6.5 °C 30.35in /  1027.7hPa NNW 10.4mph /  16.7km/h 10.4mph /  16.7km/h 66% 0.00in /  0mm 0.0 W/m2
22:54 54.9 °F /  12.7 °C 43.7 °F /  6.5 °C 30.34in /  1027.3hPa NW 10.4mph /  16.7km/h   66% 0.00in /  0mm 0.0 W/m2
22:59 54.9 °F /  12.7 °C 43.7 °F /  6.5 °C 30.34in /  1027.3hPa NW 10.4mph /  16.7km/h 10.4mph /  16.7km/h 66% 0.00in /  0mm 0.0 W/m2
23:04 54.8 °F /  12.7 °C 43.7 °F /  6.5 °C 30.34in /  1027.3hPa NW 10.4mph /  16.7km/h 10.4mph /  16.7km/h 66% 0.00in /  0mm 0.0 W/m2
23:09 54.9 °F /  12.7 °C 43.7 °F /  6.5 °C 30.34in /  1027.3hPa WNW 10.4mph /  16.7km/h 10.4mph /  16.7km/h 66% 0.00in /  0mm 0.0 W/m2
23:14 55.0 °F /  12.8 °C 43.4 °F /  6.3 °C 30.34in /  1027.3hPa NW 10.4mph /  16.7km/h 10.4mph /  16.7km/h 65% 0.00in /  0mm 0.0 W/m2
23:19 55.0 °F /  12.8 °C 43.4 °F /  6.3 °C 30.34in /  1027.3hPa NW 10.4mph /  16.7km/h 10.4mph /  16.7km/h 65% 0.00in /  0mm 0.0 W/m2
23:24 54.9 °F /  12.7 °C 43.4 °F /  6.3 °C 30.34in /  1027.3hPa NW 10.4mph /  16.7km/h 10.4mph /  16.7km/h 65% 0.00in /  0mm 0.0 W/m2
23:29 54.9 °F /  12.7 °C 43.4 °F /  6.3 °C 30.34in /  1027.3hPa WNW 10.4mph /  16.7km/h 10.4mph /  16.7km/h 65% 0.00in /  0mm 0.0 W/m2
23:34 55.0 °F /  12.8 °C 43.4 °F /  6.3 °C 30.34in /  1027.3hPa WNW 10.4mph /  16.7km/h 10.4mph /  16.7km/h 65% 0.00in /  0mm 0.0 W/m2
23:39 54.8 °F /  12.7 °C 43.3 °F /  6.3 °C 30.34in /  1027.3hPa NW 10.4mph /  16.7km/h 10.4mph /  16.7km/h 65% 0.00in /  0mm 0.0 W/m2
23:44 54.8 °F /  12.7 °C 43.7 °F /  6.5 °C 30.34in /  1027.3hPa NW 10.4mph /  16.7km/h 10.4mph /  16.7km/h 66% 0.00in /  0mm 0.0 W/m2
23:49 54.6 °F /  12.6 °C 43.5 °F /  6.4 °C 30.34in /  1027.3hPa North 10.4mph /  16.7km/h 10.4mph /  16.7km/h 66% 0.00in /  0mm 0.0 W/m2
23:55 54.6 °F /  12.6 °C 43.5 °F /  6.4 °C 30.34in /  1027.3hPa North 10.4mph /  16.7km/h 10.4mph /  16.7km/h 66% 0.00in /  0mm 0.0 W/m2
Piedmont Bend
Compliments of Weather Underground - 4 mb